CheckWX is a tool to help pilots better visualize weather data.  It is not intended as a substitute for an official pre-flight weather briefing.

14:54:53 UTC

KFYV TAF
Drake Field Airport
Fayetteville, Arkansas, USA
KFYV 291724Z 2918/3018 34009KT P6SM FEW040 FM300100 00000KT P6SM SKC FM301500 10004KT P6SM SKC

May-29@
18:00 UTC

May-29 @ 18:00 UTC

May-30@
01:00 UTC

May-30 @ 01:00 UTC

TAF KFYV 291724Z 2918/3018 34009KT P6SM FEW040

Expired

Wind
  • 340° at 9 KTS
Cloud Levels
  • Few at 4,000' AGL

May-30@
01:00 UTC

May-30 @ 01:00 UTC

May-30@
15:00 UTC

May-30 @ 15:00 UTC

FM300100 00000KT P6SM SKC

From

From Standard forecast or significant change

Cloud Levels
  • Clear skies

May-30@
15:00 UTC

May-30 @ 15:00 UTC

May-30@
18:00 UTC

May-30 @ 18:00 UTC

FM301500 10004KT P6SM SKC

From

From Standard forecast or significant change

Wind
  • 100° at 4 KTS
Cloud Levels
  • Clear skies